Time;durP1;ratioP1;P1;durP2;ratioP2;P2;SDS_P1;SDS_P2;PMS_P1;PMS_P2;Temp;Humidity;BMP_temperature;BMP_pressure;BME280_temperature;BME280_humidity;BME280_pressure;Samples;Min_cycle;Max_cycle;Signal;HPM_P1;HPM_P2
2022/12/14 00:01:36;;;;;;;45.75;24.92;;;-4.50;99.90;;;;;;5129313;27;20038;-77
2022/12/14 00:04:02;;;;;;;49.67;25.60;;;-4.60;99.90;;;;;;5124420;27;20039;-77
2022/12/14 00:06:31;;;;;;;41.75;24.08;;;-4.50;99.90;;;;;;5112475;27;20096;-77
2022/12/14 00:08:59;;;;;;;48.60;26.67;;;-4.60;99.90;;;;;;5128595;27;20051;-77
2022/12/14 00:11:25;;;;;;;47.60;26.23;;;-4.60;99.90;;;;;;5090183;28;20087;-77
2022/12/14 00:13:59;;;;;;;47.17;25.20;;;-4.60;99.90;;;;;;5099131;27;20115;-77
2022/12/14 00:16:27;;;;;;;48.15;24.23;;;-4.60;99.90;;;;;;5107758;27;20104;-77
2022/12/14 00:18:55;;;;;;;42.67;25.00;;;-4.60;99.90;;;;;;5109890;27;20131;-77
2022/12/14 00:21:21;;;;;;;48.15;26.92;;;-4.60;99.90;;;;;;5120674;27;20122;-77
2022/12/14 00:23:51;;;;;;;43.63;25.05;;;-4.70;99.90;;;;;;5109642;27;20079;-77
2022/12/14 00:26:26;;;;;;;42.67;24.38;;;-4.50;99.90;;;;;;5125285;27;20052;-77
2022/12/14 00:28:53;;;;;;;45.85;25.13;;;-4.70;99.90;;;;;;5109813;28;20036;-77
2022/12/14 00:31:19;;;;;;;45.42;24.40;;;-4.70;99.90;;;;;;5107472;28;20130;-77
2022/12/14 00:33:45;;;;;;;47.20;23.88;;;-4.60;99.90;;;;;;5089923;28;20058;-77
2022/12/14 00:36:12;;;;;;;40.95;24.25;;;-4.80;99.90;;;;;;5124854;27;20114;-77
2022/12/14 00:38:38;;;;;;;50.33;25.27;;;-4.70;99.90;;;;;;5128473;27;20039;-77
2022/12/14 00:41:05;;;;;;;47.15;25.20;;;-4.70;99.90;;;;;;5106585;27;20792;-77
2022/12/14 00:43:30;;;;;;;43.38;24.58;;;-4.70;99.90;;;;;;5095037;27;20431;-77
2022/12/14 00:45:56;;;;;;;46.90;25.05;;;-4.80;99.90;;;;;;5114337;27;20137;-77
2022/12/14 00:48:23;;;;;;;42.28;23.27;;;-4.80;99.90;;;;;;5113090;27;20047;-77
2022/12/14 00:50:50;;;;;;;43.65;24.30;;;-4.80;99.90;;;;;;5107659;28;20413;-77
2022/12/14 00:53:17;;;;;;;46.40;25.70;;;-4.80;99.90;;;;;;5089381;28;20094;-77
2022/12/14 00:55:44;;;;;;;45.65;25.10;;;-4.90;99.90;;;;;;5097628;27;20122;-77
2022/12/14 00:58:12;;;;;;;45.95;25.10;;;-4.90;99.90;;;;;;5111338;27;20031;-77
2022/12/14 01:00:38;;;;;;;49.72;24.65;;;-4.90;99.90;;;;;;5126835;27;20111;-77
2022/12/14 01:03:04;;;;;;;45.33;23.88;;;-4.90;99.90;;;;;;5122269;27;20124;-77
2022/12/14 01:05:32;;;;;;;42.83;23.83;;;-5.00;99.90;;;;;;5100066;27;20039;-77
2022/12/14 01:07:57;;;;;;;44.28;22.98;;;-5.00;99.90;;;;;;5099487;28;20035;-77
2022/12/14 01:10:23;;;;;;;44.85;23.13;;;-5.10;99.90;;;;;;5119546;27;20096;-77
2022/12/14 01:12:49;;;;;;;44.53;24.45;;;-5.20;99.90;;;;;;5127560;27;20050;-77
2022/12/14 01:15:15;;;;;;;44.85;23.38;;;-5.00;99.90;;;;;;5110678;27;20589;-77
2022/12/14 01:17:41;;;;;;;43.28;22.88;;;-4.90;99.90;;;;;;5100919;28;20050;-77
2022/12/14 01:20:07;;;;;;;44.03;23.65;;;-5.10;99.90;;;;;;5123783;27;20472;-77
2022/12/14 01:22:32;;;;;;;43.55;22.30;;;-5.10;99.90;;;;;;5126513;27;20038;-77
2022/12/14 01:24:58;;;;;;;42.78;23.58;;;-5.20;99.90;;;;;;5124662;27;20043;-77
2022/12/14 01:27:23;;;;;;;44.58;23.90;;;-5.20;99.90;;;;;;5125224;27;20043;-77
2022/12/14 01:29:49;;;;;;;46.65;23.90;;;-5.20;99.90;;;;;;5109266;27;20051;-77
2022/12/14 01:32:15;;;;;;;47.00;24.25;;;-5.20;99.90;;;;;;5084325;28;20047;-77
2022/12/14 01:34:40;;;;;;;42.80;22.90;;;-5.30;99.90;;;;;;5091431;27;20039;-77
2022/12/14 01:37:06;;;;;;;42.63;24.30;;;-5.40;99.90;;;;;;5107308;27;20043;-77
2022/12/14 01:39:31;;;;;;;40.28;22.55;;;-5.30;99.90;;;;;;5127219;27;20035;-77
2022/12/14 01:41:58;;;;;;;43.20;23.88;;;-5.10;99.90;;;;;;5103705;27;20035;-77
2022/12/14 01:44:23;;;;;;;42.95;22.38;;;-5.30;99.90;;;;;;5129182;27;20130;-77
2022/12/14 01:46:55;;;;;;;44.13;22.05;;;-5.50;99.90;;;;;;5121712;27;20115;-77
2022/12/14 01:49:27;;;;;;;;;;;-5.50;99.90;;;;;;5123949;27;20054;-77
2022/12/14 01:52:03;;;;;;;40.33;21.38;;;-5.40;99.90;;;;;;5126283;27;20006;-77
2022/12/14 01:54:31;;;;;;;39.42;21.15;;;-5.40;99.90;;;;;;5108989;27;20047;-77
2022/12/14 01:56:57;;;;;;;44.67;22.33;;;-5.40;99.90;;;;;;5123179;27;20043;-77
2022/12/14 01:59:28;;;;;;;43.20;22.85;;;-5.40;99.90;;;;;;5110227;28;20043;-77
2022/12/14 02:01:56;;;;;;;40.88;21.15;;;-5.50;99.90;;;;;;5107042;27;20050;-77
2022/12/14 02:04:22;;;;;;;42.70;22.02;;;-5.40;99.90;;;;;;5116075;27;20043;-77
2022/12/14 02:06:49;;;;;;;40.95;22.25;;;-5.50;99.90;;;;;;5101481;28;20123;-77
2022/12/14 02:09:22;;;;;;;41.92;22.23;;;-5.50;99.90;;;;;;5101263;28;20509;-77
2022/12/14 02:12:09;;;;;;;41.25;22.90;;;-5.50;99.90;;;;;;5105662;28;20081;-77
2022/12/14 02:14:34;;;;;;;43.38;23.55;;;-5.40;99.90;;;;;;5089794;28;20549;-78
2022/12/14 02:17:03;;;;;;;43.15;22.83;;;-5.40;99.90;;;;;;5079554;28;20062;-78
2022/12/14 02:19:29;;;;;;;40.80;21.77;;;-5.50;99.90;;;;;;5099930;28;20104;-78
2022/12/14 02:22:09;;;;;;;40.40;21.55;;;-5.60;99.90;;;;;;5102126;28;20040;-78
2022/12/14 02:25:04;;;;;;;41.67;22.23;;;-5.60;99.90;;;;;;5088848;28;20048;-78
2022/12/14 02:27:51;;;;;;;43.15;23.08;;;-5.60;99.90;;;;;;4988124;28;20293;-78
2022/12/14 02:30:19;;;;;;;42.70;21.88;;;-5.60;99.90;;;;;;5116794;27;20509;-78
2022/12/14 02:33:17;;;;;;;39.67;21.27;;;-5.60;99.90;;;;;;5106132;27;20416;-78
2022/12/14 02:35:58;;;;;;;43.13;20.95;;;-5.70;99.90;;;;;;5132510;27;20039;-78
2022/12/14 02:39:09;;;;;;;45.08;21.38;;;-5.70;99.90;;;;;;5116255;27;20062;-78
2022/12/14 02:41:57;;;;;;;40.85;20.38;;;-5.70;99.90;;;;;;5121103;27;20128;-78
2022/12/14 02:44:42;;;;;;;41.08;21.58;;;-5.70;99.90;;;;;;5125749;27;20054;-78
2022/12/14 02:47:20;;;;;;;39.97;20.20;;;-5.70;99.90;;;;;;5095428;28;20402;-78
2022/12/14 02:50:23;;;;;;;38.55;21.02;;;-5.80;99.90;;;;;;5092303;28;20040;-78
2022/12/14 02:53:08;;;;;;;41.17;21.52;;;-5.90;99.90;;;;;;5112770;27;20046;-78
2022/12/14 02:55:38;;;;;;;43.78;21.10;;;-5.90;99.90;;;;;;5094494;28;20050;-78
2022/12/14 02:58:20;;;;;;;39.55;20.77;;;-5.90;99.90;;;;;;5107268;27;20502;-78
2022/12/14 03:00:47;;;;;;;40.13;21.75;;;-5.90;99.90;;;;;;5108651;27;20051;-78
2022/12/14 03:03:13;;;;;;;38.22;20.50;;;-5.90;99.90;;;;;;5131220;27;20084;-78
2022/12/14 03:05:39;;;;;;;38.65;20.73;;;-6.20;99.90;;;;;;5122914;27;20048;-78
2022/12/14 03:08:13;;;;;;;38.67;20.38;;;-6.10;99.90;;;;;;5129084;27;20039;-78
2022/12/14 03:10:47;;;;;;;40.90;21.10;;;-6.10;99.90;;;;;;5106846;28;20055;-78
2022/12/14 03:13:23;;;;;;;40.72;20.13;;;-6.00;99.90;;;;;;5102677;28;20379;-77
2022/12/14 03:16:03;;;;;;;38.92;20.70;;;-6.10;99.90;;;;;;5091784;28;20062;-78
2022/12/14 03:18:45;;;;;;;35.72;19.58;;;-6.10;99.90;;;;;;5093821;28;20051;-78
2022/12/14 03:21:16;;;;;;;43.27;22.00;;;-6.20;99.90;;;;;;5089305;27;20166;-78
2022/12/14 03:23:45;;;;;;;40.38;20.90;;;-6.20;99.90;;;;;;5131428;27;20346;-77
2022/12/14 03:26:29;;;;;;;41.70;19.77;;;-6.30;99.90;;;;;;5111421;27;20209;-78
2022/12/14 03:29:09;;;;;;;45.05;20.85;;;-6.30;99.90;;;;;;5126127;27;20046;-77
2022/12/14 03:31:42;;;;;;;38.70;20.55;;;-6.30;99.90;;;;;;5113450;27;20043;-78
2022/12/14 03:34:12;;;;;;;42.10;19.85;;;-6.40;99.90;;;;;;5131851;27;20054;-78
2022/12/14 03:36:55;;;;;;;44.63;21.13;;;-6.10;99.90;;;;;;5110625;27;20047;-78
2022/12/14 03:39:27;;;;;;;40.50;19.95;;;-6.30;99.90;;;;;;5111190;27;20039;-78
2022/12/14 03:42:14;;;;;;;38.55;19.13;;;-6.30;99.90;;;;;;5124348;27;20069;-78
2022/12/14 03:44:52;;;;;;;41.22;19.67;;;-6.10;99.90;;;;;;5115921;27;20047;-78
2022/12/14 03:47:45;;;;;;;40.05;19.70;;;-6.30;99.90;;;;;;5129907;27;20047;-78
2022/12/14 03:50:36;;;;;;;34.58;18.35;;;-6.30;99.90;;;;;;5104007;27;20047;-77
2022/12/14 03:53:23;;;;;;;35.38;18.20;;;-6.40;99.90;;;;;;5114250;27;20059;-78
2022/12/14 03:55:58;;;;;;;36.15;19.60;;;-6.40;99.90;;;;;;5098696;27;20047;-78
2022/12/14 03:58:52;;;;;;;41.55;19.38;;;-6.40;99.90;;;;;;5111218;27;20051;-78
2022/12/14 04:01:32;;;;;;;37.80;17.90;;;-6.30;99.90;;;;;;5129453;27;20051;-79
2022/12/14 04:04:19;;;;;;;36.50;18.15;;;-6.40;99.90;;;;;;5091568;28;20081;-78
2022/12/14 04:07:03;;;;;;;41.63;18.45;;;-6.40;99.90;;;;;;5113472;27;20069;-78
2022/12/14 04:09:48;;;;;;;34.10;17.48;;;-6.50;99.90;;;;;;5090655;28;20044;-76
2022/12/14 04:21:11;;;;;;;38.78;19.20;;;-6.60;99.90;;;;;;5109679;27;20138;-77
2022/12/14 04:27:05;;;;;;;38.10;18.48;;;-6.60;99.90;;;;;;5078931;27;20043;-77
2022/12/14 04:32:41;;;;;;;36.58;18.58;;;-6.60;99.90;;;;;;5127586;27;20086;-76
2022/12/14 04:35:32;;;;;;;34.90;17.00;;;-6.50;99.90;;;;;;5109508;27;20125;-77
2022/12/14 04:38:04;;;;;;;37.63;18.63;;;-6.60;99.90;;;;;;5120827;27;20162;-77
2022/12/14 04:40:37;;;;;;;37.88;18.08;;;-6.50;99.90;;;;;;5129854;27;20042;-76
2022/12/14 04:43:17;;;;;;;41.05;18.67;;;-6.50;99.90;;;;;;5091312;28;20139;-77
2022/12/14 04:45:54;;;;;;;36.25;19.42;;;-6.60;99.90;;;;;;5126716;27;20039;-77
2022/12/14 04:48:35;;;;;;;32.75;17.60;;;-6.50;99.90;;;;;;5111434;27;20046;-76
2022/12/14 04:51:37;;;;;;;39.30;17.73;;;-6.50;99.90;;;;;;5125581;27;20038;-76
2022/12/14 04:54:17;;;;;;;35.78;17.52;;;-6.80;99.90;;;;;;5059681;27;20508;-76
2022/12/14 04:56:59;;;;;;;35.63;18.63;;;-6.50;99.90;;;;;;5113251;27;20075;-76
2022/12/14 04:59:25;;;;;;;39.35;18.52;;;-6.60;99.90;;;;;;5129952;27;20420;-76
2022/12/14 05:02:16;;;;;;;35.10;17.08;;;-6.40;99.90;;;;;;5127890;27;20095;-76
2022/12/14 05:05:20;;;;;;;32.03;16.83;;;-6.60;99.90;;;;;;5124664;27;20468;-76
2022/12/14 05:08:01;;;;;;;40.72;19.00;;;-6.80;99.90;;;;;;5043336;28;20118;-76
2022/12/14 05:10:35;;;;;;;37.55;18.52;;;-7.00;99.90;;;;;;5122058;27;20058;-77
2022/12/14 05:13:27;;;;;;;37.78;18.13;;;-6.80;99.90;;;;;;5080653;28;20066;-76
2022/12/14 05:15:55;;;;;;;35.28;18.58;;;-6.70;99.90;;;;;;5118254;27;20424;-77
2022/12/14 05:18:21;;;;;;;41.00;19.23;;;-6.60;99.90;;;;;;5129236;27;20057;-76
2022/12/14 05:20:47;;;;;;;42.00;19.85;;;-7.00;99.90;;;;;;5109398;27;20035;-76
2022/12/14 05:23:13;;;;;;;38.95;18.58;;;-6.50;99.90;;;;;;5103579;27;20516;-77
2022/12/14 05:25:39;;;;;;;40.80;17.73;;;-6.50;99.90;;;;;;5120824;27;20047;-77
2022/12/14 05:28:05;;;;;;;40.85;19.70;;;-6.60;99.90;;;;;;5073115;28;20405;-76
2022/12/14 05:30:30;;;;;;;41.55;19.85;;;-6.60;99.90;;;;;;5127829;27;20126;-76
2022/12/14 05:32:56;;;;;;;46.47;21.58;;;-6.50;99.90;;;;;;5128094;27;20184;-76
2022/12/14 05:35:22;;;;;;;45.60;19.70;;;-6.50;99.90;;;;;;5126600;27;20487;-76
2022/12/14 05:37:47;;;;;;;34.85;17.52;;;-6.50;99.90;;;;;;5127635;27;20482;-76
2022/12/14 05:40:13;;;;;;;38.47;18.25;;;-6.60;99.90;;;;;;5125114;27;20414;-76
2022/12/14 05:42:39;;;;;;;42.45;18.80;;;-6.60;99.90;;;;;;5090258;27;20051;-76
2022/12/14 05:45:05;;;;;;;36.97;17.85;;;-6.50;99.90;;;;;;5125455;27;20049;-76
2022/12/14 05:47:31;;;;;;;37.60;19.95;;;-6.60;99.90;;;;;;5115095;27;20532;-77
2022/12/14 05:49:56;;;;;;;39.58;18.73;;;-6.70;99.90;;;;;;5105233;28;20043;-77
2022/12/14 05:52:25;;;;;;;34.60;17.95;;;-6.80;99.90;;;;;;5104658;28;20043;-77
2022/12/14 05:54:51;;;;;;;38.15;20.42;;;-6.70;99.90;;;;;;5092723;27;20050;-78
2022/12/14 05:57:17;;;;;;;36.75;18.65;;;-6.80;99.90;;;;;;5100541;27;20039;-78
2022/12/14 05:59:43;;;;;;;41.00;19.65;;;-6.80;99.90;;;;;;5107664;28;20088;-78
2022/12/14 06:02:08;;;;;;;37.95;18.65;;;-6.90;99.90;;;;;;5089313;28;20131;-79
2022/12/14 06:04:34;;;;;;;36.40;18.40;;;-6.90;99.90;;;;;;5122558;27;20047;-79
2022/12/14 06:06:59;;;;;;;44.63;19.35;;;-6.90;99.90;;;;;;5116022;28;20035;-78
2022/12/14 06:09:25;;;;;;;37.33;18.30;;;-6.80;99.90;;;;;;5110338;28;20518;-78
2022/12/14 06:11:50;;;;;;;42.10;19.60;;;-6.80;99.90;;;;;;5121595;28;20142;-79
2022/12/14 06:14:16;;;;;;;41.30;19.02;;;-6.90;99.90;;;;;;5127672;28;20695;-78
2022/12/14 06:16:44;;;;;;;39.08;18.70;;;-6.50;99.90;;;;;;5105642;28;20050;-79
2022/12/14 06:19:11;;;;;;;43.00;19.63;;;-6.80;99.90;;;;;;5128537;28;20035;-78
2022/12/14 06:21:39;;;;;;;43.03;19.85;;;-6.90;99.90;;;;;;5094245;28;20421;-78
2022/12/14 06:24:06;;;;;;;42.47;19.42;;;-6.80;99.90;;;;;;5127858;28;20500;-79
2022/12/14 06:26:35;;;;;;;42.65;19.52;;;-6.60;99.90;;;;;;5122967;28;20092;-79
2022/12/14 06:29:02;;;;;;;41.38;19.40;;;-6.80;99.90;;;;;;5079857;28;20125;-78
2022/12/14 06:31:30;;;;;;;38.85;18.52;;;-6.80;99.90;;;;;;5121174;28;20055;-78
2022/12/14 06:34:00;;;;;;;44.85;20.10;;;-6.80;99.90;;;;;;5120588;28;20099;-78
2022/12/14 06:36:34;;;;;;;38.67;19.23;;;-6.80;99.90;;;;;;5105778;28;20050;-79
2022/12/14 06:39:12;;;;;;;41.35;19.60;;;-6.80;99.90;;;;;;5108070;28;20054;-79
2022/12/14 06:41:39;;;;;;;39.20;19.42;;;-6.80;99.90;;;;;;5105317;28;20082;-79
2022/12/14 06:44:07;;;;;;;41.42;18.83;;;-6.80;99.90;;;;;;5107177;28;20051;-78
2022/12/14 06:46:33;;;;;;;43.60;19.85;;;-6.80;99.90;;;;;;5107579;28;20074;-78
2022/12/14 06:48:59;;;;;;;38.13;19.38;;;-6.80;99.90;;;;;;5108067;28;20126;-79
2022/12/14 06:51:25;;;;;;;42.35;18.55;;;-6.80;99.90;;;;;;5111513;28;20122;-78
2022/12/14 06:53:52;;;;;;;42.63;20.05;;;-7.00;99.90;;;;;;5126043;28;20053;-78
2022/12/14 06:56:19;;;;;;;38.70;19.63;;;-7.00;99.90;;;;;;5127434;28;20035;-78
2022/12/14 06:58:45;;;;;;;41.33;20.02;;;-7.10;99.90;;;;;;5127820;28;20532;-78
2022/12/14 07:01:14;;;;;;;40.95;19.00;;;-7.10;99.90;;;;;;5071873;28;20039;-78
2022/12/14 07:03:40;;;;;;;38.35;18.13;;;-7.10;99.90;;;;;;5107650;28;20469;-78
2022/12/14 07:06:07;;;;;;;40.75;19.60;;;-7.00;99.90;;;;;;5108130;28;20039;-79
2022/12/14 07:08:35;;;;;;;42.22;19.95;;;-6.80;99.90;;;;;;5094852;28;20547;-79
2022/12/14 07:11:02;;;;;;;40.97;18.50;;;-6.00;99.90;;;;;;5114519;28;20040;-79
2022/12/14 07:13:28;;;;;;;36.67;17.48;;;-7.10;99.90;;;;;;5069728;27;20051;-79
2022/12/14 07:15:55;;;;;;;40.53;18.02;;;-7.00;99.90;;;;;;5109107;28;20135;-79
2022/12/14 07:18:21;;;;;;;35.88;18.13;;;-6.90;99.90;;;;;;5092278;28;20468;-79
2022/12/14 07:20:59;;;;;;;43.00;17.75;;;-7.00;99.90;;;;;;5097749;28;20401;-79
2022/12/14 07:23:26;;;;;;;44.25;19.15;;;-7.10;99.90;;;;;;5111038;28;20485;-79
2022/12/14 07:25:52;;;;;;;39.90;18.48;;;-7.10;99.90;;;;;;5110692;28;20040;-79
2022/12/14 07:28:18;;;;;;;37.33;17.52;;;-7.30;99.90;;;;;;5111459;28;20092;-79
2022/12/14 07:30:44;;;;;;;42.63;18.95;;;-7.10;99.90;;;;;;5110893;28;20113;-79
2022/12/14 07:33:09;;;;;;;40.00;18.48;;;-7.00;99.90;;;;;;5092322;28;20493;-80
2022/12/14 07:35:35;;;;;;;38.95;17.88;;;-7.10;99.90;;;;;;5090354;28;20039;-80
2022/12/14 07:38:01;;;;;;;38.28;18.58;;;-6.90;99.90;;;;;;5108476;28;20044;-80
2022/12/14 07:40:27;;;;;;;43.05;20.00;;;-6.80;99.90;;;;;;5110706;28;20089;-80
2022/12/14 07:42:52;;;;;;;38.90;18.92;;;-6.90;99.90;;;;;;5092425;28;20048;-79
2022/12/14 07:45:18;;;;;;;40.22;18.55;;;-6.90;99.90;;;;;;5110352;28;20044;-80
2022/12/14 07:47:43;;;;;;;39.22;18.70;;;-6.90;99.90;;;;;;5091977;28;20481;-80
2022/12/14 07:50:09;;;;;;;40.17;18.00;;;-6.80;99.90;;;;;;5104421;27;20055;-79
2022/12/14 07:52:35;;;;;;;35.45;17.25;;;-6.70;99.90;;;;;;5108962;28;20054;-79
2022/12/14 07:55:00;;;;;;;39.28;17.52;;;-6.70;99.90;;;;;;5110744;28;20055;-79
2022/12/14 07:57:26;;;;;;;42.25;19.88;;;-6.70;99.90;;;;;;5091119;28;20036;-79
2022/12/14 07:59:51;;;;;;;44.83;20.35;;;-6.70;99.90;;;;;;5074114;28;20521;-79
2022/12/14 08:02:17;;;;;;;35.55;18.20;;;-6.60;99.90;;;;;;5075349;28;20040;-79
2022/12/14 08:04:43;;;;;;;38.83;17.80;;;-6.60;99.90;;;;;;5110739;28;20039;-77
2022/12/14 08:07:08;;;;;;;37.65;18.58;;;-6.70;99.90;;;;;;5110194;28;20143;-77
2022/12/14 08:09:34;;;;;;;35.60;16.83;;;-6.70;99.90;;;;;;5091476;28;20040;-77
2022/12/14 08:11:59;;;;;;;38.10;19.90;;;-6.70;99.90;;;;;;5091543;28;20108;-78
2022/12/14 08:14:25;;;;;;;33.33;17.25;;;-6.70;99.90;;;;;;5113805;27;20531;-78
2022/12/14 08:16:50;;;;;;;37.88;18.20;;;-6.70;99.90;;;;;;5130240;27;20051;-78
2022/12/14 08:19:17;;;;;;;39.50;18.15;;;-6.60;99.90;;;;;;5117401;27;20500;-79
2022/12/14 08:21:44;;;;;;;39.45;18.23;;;-6.80;99.90;;;;;;5097694;27;20046;-79
2022/12/14 08:24:12;;;;;;;36.42;17.52;;;-6.80;99.90;;;;;;5104014;27;20489;-79
2022/12/14 08:26:38;;;;;;;37.20;17.98;;;-6.90;99.90;;;;;;5128603;27;20043;-79
2022/12/14 08:29:04;;;;;;;38.60;19.30;;;-6.80;99.90;;;;;;5111897;27;20047;-79
2022/12/14 08:31:30;;;;;;;37.75;17.55;;;-6.90;99.90;;;;;;5111400;27;20046;-79
2022/12/14 08:34:00;;;;;;;38.75;17.58;;;-6.90;99.90;;;;;;5111304;27;20043;-79
2022/12/14 08:36:34;;;;;;;42.63;18.20;;;-6.80;99.90;;;;;;5130132;27;20481;-79
2022/12/14 08:39:02;;;;;;;36.92;18.63;;;-6.80;99.90;;;;;;5093730;28;20138;-79
2022/12/14 08:41:29;;;;;;;36.33;17.45;;;-6.70;99.90;;;;;;5090537;28;20069;-79
2022/12/14 08:43:59;;;;;;;36.65;17.40;;;-6.80;99.90;;;;;;5091683;28;20045;-79
2022/12/14 08:46:27;;;;;;;43.13;18.27;;;-6.70;99.90;;;;;;5091554;28;20460;-79
2022/12/14 08:48:53;;;;;;;36.17;18.27;;;-6.80;99.90;;;;;;5091088;28;20346;-79
2022/12/14 08:51:20;;;;;;;34.15;17.50;;;-6.60;99.90;;;;;;5090852;28;20053;-78
2022/12/14 08:53:46;;;;;;;39.13;17.52;;;-6.70;99.90;;;;;;5090852;28;20410;-78
2022/12/14 08:56:16;;;;;;;34.38;17.23;;;-6.60;99.90;;;;;;5108396;28;20125;-79
2022/12/14 08:58:42;;;;;;;37.85;18.50;;;-6.40;99.90;;;;;;5091281;28;20046;-79
2022/12/14 09:01:12;;;;;;;36.60;17.27;;;-6.60;99.90;;;;;;5090990;28;20090;-78
2022/12/14 09:03:38;;;;;;;35.53;17.83;;;-6.40;99.90;;;;;;5109256;28;20043;-78
2022/12/14 09:06:06;;;;;;;37.05;17.25;;;-6.50;99.90;;;;;;5090942;28;20039;-78
2022/12/14 09:08:32;;;;;;;38.28;18.52;;;-6.30;99.90;;;;;;5089844;28;20652;-78
2022/12/14 09:10:59;;;;;;;32.53;15.90;;;-6.20;99.90;;;;;;5108622;28;20040;-79
2022/12/14 09:13:25;;;;;;;39.60;18.45;;;-6.30;99.90;;;;;;5107207;28;20051;-78
2022/12/14 09:16:06;;;;;;;39.10;18.40;;;-6.20;99.90;;;;;;5109363;28;20055;-79
2022/12/14 09:18:33;;;;;;;33.75;17.48;;;-6.20;99.90;;;;;;5073522;28;20062;-78
2022/12/14 09:20:58;;;;;;;36.25;17.83;;;-6.20;99.90;;;;;;5090626;28;20405;-78
2022/12/14 09:23:26;;;;;;;34.80;18.33;;;-6.10;99.90;;;;;;5108021;28;20242;-78
2022/12/14 09:26:24;;;;;;;38.25;19.40;;;-6.10;99.90;;;;;;5119098;27;20077;-78
2022/12/14 09:28:52;;;;;;;36.28;18.45;;;-6.00;99.90;;;;;;5091818;28;20077;-79
2022/12/14 09:31:21;;;;;;;32.30;17.30;;;-6.00;99.90;;;;;;5088805;27;20650;-78
2022/12/14 09:33:47;;;;;;;34.13;15.80;;;-6.10;99.90;;;;;;5094258;28;20055;-79
2022/12/14 09:36:16;;;;;;;37.40;19.25;;;-5.90;99.90;;;;;;5090857;28;20408;-79
2022/12/14 09:38:42;;;;;;;40.03;18.23;;;-5.90;99.90;;;;;;5105526;28;20044;-80
2022/12/14 09:41:33;;;;;;;33.42;16.65;;;-5.80;99.90;;;;;;5075276;28;20044;-79
2022/12/14 09:44:13;;;;;;;33.13;17.25;;;-5.80;99.90;;;;;;5070155;28;20060;-78
2022/12/14 09:47:10;;;;;;;34.97;17.00;;;-5.70;99.90;;;;;;5092975;27;20730;-77
2022/12/14 09:50:04;;;;;;;36.03;16.85;;;-5.80;99.90;;;;;;5068947;28;20065;-78
2022/12/14 09:52:39;;;;;;;35.83;17.00;;;-5.60;99.90;;;;;;5099631;27;20125;-79
2022/12/14 09:55:22;;;;;;;34.42;16.33;;;-5.50;99.90;;;;;;5074756;27;20433;-79
2022/12/14 09:58:09;;;;;;;35.40;17.70;;;-5.50;99.90;;;;;;5128464;27;20050;-79
2022/12/14 10:00:42;;;;;;;34.33;17.80;;;-5.30;99.90;;;;;;5110918;27;20485;-79
2022/12/14 10:03:43;;;;;;;36.33;18.58;;;-5.20;99.90;;;;;;5089491;28;20458;-79
2022/12/14 10:06:29;;;;;;;46.25;18.77;;;-5.30;99.90;;;;;;5074275;27;20153;-78
2022/12/14 10:09:01;;;;;;;36.95;18.20;;;-5.20;99.90;;;;;;5110193;28;20062;-79
2022/12/14 10:11:33;;;;;;;39.10;17.77;;;-5.10;99.90;;;;;;5127224;28;20062;-78
2022/12/14 10:14:24;;;;;;;32.72;16.80;;;-5.00;99.90;;;;;;5108668;28;20055;-78
2022/12/14 10:17:10;;;;;;;33.90;16.95;;;-4.90;99.90;;;;;;5099882;28;20047;-78
2022/12/14 10:19:55;;;;;;;27.58;15.38;;;-4.90;99.90;;;;;;5087605;28;20040;-78
2022/12/14 10:22:37;;;;;;;30.20;14.75;;;;;;;;;;5088312;28;20039;-78
2022/12/14 10:25:09;;;;;;;30.58;15.05;;;;;;;;;;5127107;28;20043;-78
2022/12/14 10:27:36;;;;;;;29.75;16.50;;;;;;;;;;5107845;28;20047;-78
2022/12/14 10:30:07;;;;;;;28.88;14.48;;;;;;;;;;5128241;28;20054;-78
2022/12/14 10:32:37;;;;;;;29.10;15.95;;;;;;;;;;5106844;28;20043;-78
2022/12/14 10:35:13;;;;;;;26.83;15.75;;;;;;;;;;5123379;28;20114;-78
2022/12/14 10:37:42;;;;;;;30.63;16.92;;;;;;;;;;5109848;28;20466;-79
2022/12/14 10:40:08;;;;;;;30.38;16.23;;;;;;;;;;5109761;28;20123;-78
2022/12/14 10:42:37;;;;;;;31.30;16.33;;;;;;;;;;5109818;28;20066;-78
2022/12/14 10:45:21;;;;;;;31.65;15.05;;;;;;;;;;5104098;28;20050;-79
2022/12/14 10:47:50;;;;;;;25.92;14.65;;;;;;;;;;5109726;28;20115;-79
2022/12/14 10:50:28;;;;;;;28.73;16.33;;;;;;;;;;5093866;27;20493;-79
2022/12/14 10:52:55;;;;;;;30.63;16.10;;;;;;;;;;5113440;27;20082;-79
2022/12/14 10:55:29;;;;;;;29.45;16.52;;;;;;;;;;5114115;27;20047;-78
2022/12/14 10:57:55;;;;;;;28.67;14.77;;;;;;;;;;5111483;28;20643;-78
2022/12/14 11:00:21;;;;;;;34.13;17.40;;;;;;;;;;5111067;28;20134;-78
2022/12/14 11:02:48;;;;;;;28.75;15.95;;;;;;;;;;5111353;28;20162;-78
2022/12/14 11:05:14;;;;;;;27.25;15.13;;;;;;;;;;5093591;28;20144;-80
2022/12/14 11:07:42;;;;;;;28.13;13.75;;;;;;;;;;5110756;28;20443;-79
2022/12/14 11:10:20;;;;;;;27.50;15.50;;;;;;;;;;5091100;28;20244;-78
2022/12/14 11:13:02;;;;;;;27.30;14.48;;;;;;;;;;5103330;27;20058;-78
2022/12/14 11:15:33;;;;;;;25.65;14.13;;;;;;;;;;5102684;27;20438;-79
2022/12/14 11:18:01;;;;;;;26.02;14.43;;;;;;;;;;5100010;27;20489;-79
2022/12/14 11:20:27;;;;;;;23.95;13.60;;;;;;;;;;5131371;27;20261;-80
2022/12/14 11:22:54;;;;;;;26.67;14.40;;;;;;;;;;5131974;27;20070;-81
2022/12/14 11:25:26;;;;;;;24.75;14.43;;;;;;;;;;5086504;28;20039;-80
2022/12/14 11:27:52;;;;;;;27.42;14.23;;;;;;;;;;5107495;28;20180;-80
2022/12/14 11:30:18;;;;;;;24.75;13.30;;;;;;;;;;5091954;28;20122;-80
2022/12/14 11:32:48;;;;;;;23.63;13.27;;;;;;;;;;5076257;28;20058;-80
2022/12/14 11:35:19;;;;;;;26.45;12.93;;;-2.30;99.90;;;;;;5093151;28;20044;-80
2022/12/14 11:37:48;;;;;;;24.98;13.25;;;-2.60;99.90;;;;;;5092432;28;20035;-80
2022/12/14 11:40:24;;;;;;;23.10;13.18;;;-2.50;99.90;;;;;;5095673;27;20504;-80
2022/12/14 11:42:50;;;;;;;20.42;11.40;;;-2.50;99.90;;;;;;5069761;27;20096;-80
2022/12/14 11:45:25;;;;;;;21.52;12.65;;;-2.50;99.90;;;;;;5092245;28;20081;-79
2022/12/14 11:48:13;;;;;;;23.98;13.38;;;-2.40;99.90;;;;;;5117411;27;20123;-80
2022/12/14 11:50:39;;;;;;;22.15;12.80;;;-2.30;99.90;;;;;;5113574;27;20051;-79
2022/12/14 11:53:08;;;;;;;23.08;11.52;;;-2.20;99.90;;;;;;5112654;27;20057;-79
2022/12/14 11:55:39;;;;;;;24.90;13.52;;;-2.20;99.90;;;;;;5096195;27;20051;-80
2022/12/14 11:58:17;;;;;;;21.08;11.27;;;-2.10;99.90;;;;;;5126202;27;20100;-79
2022/12/14 12:01:13;;;;;;;19.75;12.35;;;-2.10;99.90;;;;;;5079750;28;20078;-80
2022/12/14 12:03:50;;;;;;;22.13;12.48;;;-2.00;99.90;;;;;;5074326;28;20048;-79
2022/12/14 12:06:25;;;;;;;21.00;11.63;;;-2.00;99.90;;;;;;5092404;28;20082;-80
2022/12/14 12:08:55;;;;;;;18.42;10.88;;;;;;;;;;5091973;28;20039;-80
2022/12/14 12:11:25;;;;;;;22.33;10.40;;;-1.60;99.90;;;;;;5088143;28;20143;-80
2022/12/14 12:13:57;;;;;;;22.02;12.57;;;-1.80;99.90;;;;;;5074401;28;20055;-81
2022/12/14 12:16:25;;;;;;;;;;;-1.90;99.90;;;;;;5066263;28;20059;-81
2022/12/14 12:19:06;;;;;;;21.73;12.15;;;-1.70;99.90;;;;;;5065748;28;19932;-80
2022/12/14 12:21:39;;;;;;;19.60;11.10;;;-1.60;99.90;;;;;;5067169;28;20045;-81
2022/12/14 12:24:19;;;;;;;20.08;11.65;;;-1.20;99.90;;;;;;5068324;28;20044;-80
2022/12/14 12:26:53;;;;;;;18.67;11.73;;;-1.20;99.90;;;;;;5073596;28;20164;-81
2022/12/14 12:29:31;;;;;;;22.15;12.10;;;-1.10;99.90;;;;;;5076511;28;20060;-81
2022/12/14 12:32:02;;;;;;;19.75;12.32;;;-1.00;99.90;;;;;;5068284;28;20079;-81
2022/12/14 12:34:57;;;;;;;22.45;12.60;;;-0.70;99.90;;;;;;5050932;28;20144;-81
2022/12/14 12:37:39;;;;;;;24.80;13.82;;;-0.60;99.90;;;;;;5067606;28;20127;-80
2022/12/14 12:40:18;;;;;;;23.35;10.80;;;-0.90;99.90;;;;;;5067691;28;20052;-80
2022/12/14 12:42:52;;;;;;;22.23;12.38;;;-0.70;99.90;;;;;;5069910;28;20044;-82
2022/12/14 12:45:33;;;;;;;23.05;12.70;;;-0.50;99.90;;;;;;5079001;28;20082;-81
2022/12/14 12:48:08;;;;;;;24.42;12.73;;;-0.40;99.90;;;;;;5089296;28;20051;-81
2022/12/14 12:50:39;;;;;;;21.05;11.63;;;-0.20;99.90;;;;;;5087306;28;20060;-81
2022/12/14 12:53:13;;;;;;;22.02;12.73;;;-0.30;99.90;;;;;;5089118;28;20040;-81
2022/12/14 12:55:49;;;;;;;23.88;12.57;;;-0.20;99.90;;;;;;5070594;28;20040;-81
2022/12/14 12:58:27;;;;;;;23.63;13.65;;;-0.20;99.90;;;;;;5087412;28;20485;-81
2022/12/14 13:00:57;;;;;;;24.30;15.07;;;-0.30;99.90;;;;;;5087284;28;20048;-81
2022/12/14 13:03:31;;;;;;;20.63;12.50;;;-0.30;99.90;;;;;;5087676;28;20113;-80
2022/12/14 13:06:06;;;;;;;20.65;11.82;;;-0.40;99.90;;;;;;5087720;28;20047;-82
2022/12/14 13:08:38;;;;;;;21.38;12.98;;;-0.40;99.90;;;;;;5087340;28;20079;-81
2022/12/14 13:11:14;;;;;;;25.83;14.20;;;-0.40;99.90;;;;;;5088851;28;20040;-83
2022/12/14 13:13:44;;;;;;;21.98;13.85;;;-0.40;99.90;;;;;;5090281;28;20478;-80
2022/12/14 13:16:16;;;;;;;24.67;12.20;;;;;;;;;;5090864;28;20047;-80
2022/12/14 13:18:44;;;;;;;19.23;10.75;;;;;;;;;;5108415;28;20082;-80